JA96PL RJBH-RJOA
Flight info
| Callsign | JA96PL |
|---|---|
| Flight time | 0h 13m |
| Altitude | 9000 |
| Route | KOLTY HGE |
| Aircraft | C750/M-SBDE3FGHRWXY/S |
Departure
| Time | 2026-04-25 10:45 |
|---|---|
| Airport | Hiroshima Heliport (RJBH) |
Arrival
| Time | 2026-04-25 10:59 |
|---|---|
| Airport | Hiroshima Airport (RJOA) |
| Time | Latitude | Longitude | Altitude | Speed | Heading |
|---|---|---|---|---|---|
| 2026-04-25 10:35 | 34.37129 | 132.41881 | 24 ft | 0 kts | 217° |
| 2026-04-25 10:43 | 34.37129 | 132.41880 | 22 ft | 0 kts | 224° |
| 2026-04-25 10:43 | 34.37127 | 132.41854 | 23 ft | 7 kts | 268° |
| 2026-04-25 10:44 | 34.37123 | 132.41817 | 22 ft | 7 kts | 281° |
| 2026-04-25 10:44 | 34.37165 | 132.41742 | 21 ft | 15 kts | 336° |
| 2026-04-25 10:44 | 34.37279 | 132.41779 | 21 ft | 19 kts | 12° |
| 2026-04-25 10:44 | 34.37387 | 132.41813 | 21 ft | 11 kts | 64° |
| 2026-04-25 10:45 | 34.37348 | 132.41840 | 20 ft | 11 kts | 206° |
| 2026-04-25 10:45 | 34.36902 | 132.41534 | 22 ft | 130 kts | 208° |
| 2026-04-25 10:45 | 34.36037 | 132.40997 | 557 ft | 137 kts | 201° |
| 2026-04-25 10:45 | 34.35068 | 132.40719 | 1086 ft | 158 kts | 176° |
| 2026-04-25 10:46 | 34.34083 | 132.41481 | 1526 ft | 190 kts | 119° |
| 2026-04-25 10:46 | 34.34022 | 132.43099 | 2338 ft | 208 kts | 70° |
| 2026-04-25 10:46 | 34.35003 | 132.44412 | 3396 ft | 215 kts | 40° |
| 2026-04-25 10:46 | 34.36155 | 132.45577 | 4583 ft | 217 kts | 46° |
| 2026-04-25 10:47 | 34.37143 | 132.46965 | 5731 ft | 218 kts | 56° |
| 2026-04-25 10:47 | 34.37878 | 132.48570 | 6840 ft | 219 kts | 70° |
| 2026-04-25 10:47 | 34.38334 | 132.50330 | 7935 ft | 221 kts | 76° |
| 2026-04-25 10:47 | 34.38748 | 132.52174 | 8823 ft | 236 kts | 75° |
| 2026-04-25 10:48 | 34.39257 | 132.54226 | 9013 ft | 272 kts | 73° |
| 2026-04-25 10:48 | 34.39825 | 132.56414 | 9011 ft | 274 kts | 73° |
| 2026-04-25 10:48 | 34.40393 | 132.58646 | 9075 ft | 285 kts | 74° |
| 2026-04-25 10:48 | 34.40961 | 132.60922 | 10269 ft | 275 kts | 74° |
| 2026-04-25 10:49 | 34.41527 | 132.63181 | 10951 ft | 290 kts | 73° |
| 2026-04-25 10:49 | 34.41932 | 132.64789 | 11009 ft | 312 kts | 73° |
| 2026-04-25 10:49 | 34.42844 | 132.68395 | 11011 ft | 356 kts | 73° |
| 2026-04-25 10:49 | 34.43545 | 132.71383 | 10994 ft | 380 kts | 78° |
| 2026-04-25 10:50 | 34.43662 | 132.74643 | 11004 ft | 395 kts | 91° |
| 2026-04-25 10:50 | 34.43574 | 132.77981 | 11011 ft | 398 kts | 92° |
| 2026-04-25 10:50 | 34.43516 | 132.81324 | 11008 ft | 396 kts | 91° |
| 2026-04-25 10:50 | 34.43493 | 132.84684 | 11007 ft | 399 kts | 90° |
| 2026-04-25 10:51 | 34.43454 | 132.88060 | 11005 ft | 398 kts | 91° |
| 2026-04-25 10:51 | 34.43816 | 132.91367 | 10953 ft | 395 kts | 74° |
| 2026-04-25 10:51 | 34.44697 | 132.94097 | 10219 ft | 300 kts | 66° |
| 2026-04-25 10:51 | 34.45555 | 132.96173 | 8176 ft | 267 kts | 63° |
| 2026-04-25 10:52 | 34.46439 | 132.98099 | 5910 ft | 259 kts | 62° |
| 2026-04-25 10:52 | 34.47398 | 133.00111 | 4452 ft | 286 kts | 62° |
| 2026-04-25 10:52 | 34.48381 | 133.02160 | 3997 ft | 271 kts | 62° |
| 2026-04-25 10:52 | 34.49287 | 133.04049 | 3988 ft | 252 kts | 62° |
| 2026-04-25 10:53 | 34.50173 | 133.05895 | 3997 ft | 256 kts | 62° |
| 2026-04-25 10:53 | 34.51069 | 133.07760 | 4017 ft | 258 kts | 62° |
| 2026-04-25 10:53 | 34.51968 | 133.09650 | 4001 ft | 257 kts | 64° |
| 2026-04-25 10:53 | 34.52235 | 133.11759 | 3963 ft | 259 kts | 100° |
| 2026-04-25 10:54 | 34.51445 | 133.13533 | 3942 ft | 230 kts | 137° |
| 2026-04-25 10:54 | 34.50522 | 133.14112 | 3942 ft | 225 kts | 161° |
| 2026-04-25 10:54 | 34.48489 | 133.14208 | 4003 ft | 220 kts | 187° |
| 2026-04-25 10:54 | 34.46983 | 133.13918 | 3994 ft | 221 kts | 183° |
| 2026-04-25 10:55 | 34.45452 | 133.13660 | 3827 ft | 226 kts | 195° |
| 2026-04-25 10:55 | 34.44196 | 133.12512 | 3610 ft | 233 kts | 230° |
| 2026-04-25 10:55 | 34.43609 | 133.10699 | 3381 ft | 234 kts | 262° |
| 2026-04-25 10:55 | 34.43581 | 133.08790 | 3269 ft | 221 kts | 269° |
| 2026-04-25 10:56 | 34.43596 | 133.06966 | 3093 ft | 212 kts | 269° |
| 2026-04-25 10:56 | 34.43596 | 133.05207 | 2897 ft | 208 kts | 268° |
| 2026-04-25 10:56 | 34.43596 | 133.03469 | 2679 ft | 205 kts | 269° |
| 2026-04-25 10:56 | 34.43599 | 133.01774 | 2414 ft | 194 kts | 269° |
| 2026-04-25 10:57 | 34.43603 | 133.00192 | 2128 ft | 175 kts | 268° |
| 2026-04-25 10:57 | 34.43603 | 132.98819 | 1853 ft | 152 kts | 268° |
| 2026-04-25 10:57 | 34.43604 | 132.97630 | 1692 ft | 132 kts | 269° |
| 2026-04-25 10:57 | 34.43602 | 132.96532 | 1490 ft | 128 kts | 269° |
| 2026-04-25 10:58 | 34.43602 | 132.95465 | 1333 ft | 126 kts | 269° |
| 2026-04-25 10:58 | 34.43609 | 132.94431 | 1246 ft | 122 kts | 269° |
| 2026-04-25 10:58 | 34.43601 | 132.93392 | 1118 ft | 127 kts | 271° |
| 2026-04-25 10:58 | 34.43597 | 132.92392 | 1078 ft | 117 kts | 269° |
| 2026-04-25 10:59 | 34.43596 | 132.91377 | 1077 ft | 113 kts | 268° |
| 2026-04-25 10:59 | 34.43600 | 132.90544 | 1078 ft | 65 kts | 276° |
| 2026-04-25 10:59 | 34.43630 | 132.90344 | 1078 ft | 10 kts | 304° |
| 2026-04-25 10:59 | 34.43676 | 132.90327 | 1077 ft | 6 kts | 3° |
| 2026-04-25 11:00 | 34.43719 | 132.90327 | 1076 ft | 7 kts | 357° |
| 2026-04-25 11:00 | 34.43760 | 132.90362 | 1075 ft | 9 kts | 57° |
| 2026-04-25 11:00 | 34.43771 | 132.90463 | 1075 ft | 17 kts | 93° |
| 2026-04-25 11:00 | 34.43773 | 132.90635 | 1080 ft | 21 kts | 89° |
| 2026-04-25 11:01 | 34.43771 | 132.90816 | 1080 ft | 25 kts | 90° |
| 2026-04-25 11:01 | 34.43772 | 132.91071 | 1079 ft | 35 kts | 89° |
| 2026-04-25 11:01 | 34.43771 | 132.91390 | 1075 ft | 39 kts | 90° |
| 2026-04-25 11:01 | 34.43770 | 132.91711 | 1075 ft | 37 kts | 90° |
| 2026-04-25 11:02 | 34.43771 | 132.92003 | 1072 ft | 27 kts | 90° |
| 2026-04-25 11:02 | 34.43772 | 132.92126 | 1075 ft | 16 kts | 85° |
| 2026-04-25 11:02 | 34.43842 | 132.92145 | 1076 ft | 11 kts | 336° |
| 2026-04-25 11:02 | 34.43881 | 132.92174 | 1077 ft | 3 kts | 91° |